Tuskegee, Oklahoma
Current Conditions -  °F | °C
As of 2:35 AM on Friday 24 Oct 2014 (Local Time) from KOKM Reporting Station
Clear Clear  
Wind Chill: 55°   Ceiling: Unl
Heat Index: 55°   Visibility: 10mi
Dew Point: 55°   Wind: 0mph
Humidity: 99%   Direction: NA
Pressure: 30.12"   Gusts: NA
Location:  35.7718°N, 96.3174°W
Report Text: KOKM 240735Z AUTO 00000KT 10SM CLR 13/13 A3012 RMK AO2 T01280127
Loading
Personal Weather Stations






























Interactive Weather Map
Tropical Storm Tracking
New forecast layout! Learn more

10-Day Weather Forecast

Advertisements
Track Severe Weather on mobile